createdAt,value
2023-06-21T00:00:17.247Z,9.23
2023-06-21T00:03:25.278Z,9.60
2023-06-21T00:06:30.268Z,9.57
2023-06-21T00:09:33.232Z,9.73
2023-06-21T00:12:39.517Z,9.93
2023-06-21T00:15:42.538Z,8.82
2023-06-21T00:18:45.559Z,8.77
2023-06-21T00:21:48.562Z,8.80
2023-06-21T00:24:53.393Z,9.43
2023-06-21T00:27:56.366Z,9.25
2023-06-21T00:31:01.039Z,9.02
2023-06-21T00:34:04.072Z,9.57
2023-06-21T00:37:08.146Z,9.07
2023-06-21T00:40:13.977Z,10.07
2023-06-21T00:43:18.100Z,9.27
2023-06-21T00:46:22.971Z,9.75
2023-06-21T00:49:29.020Z,9.50
2023-06-21T00:52:33.744Z,9.97
2023-06-21T00:55:36.961Z,9.90
2023-06-21T00:58:40.780Z,9.35
2023-06-21T01:01:43.832Z,9.50
2023-06-21T01:04:50.337Z,9.53
2023-06-21T01:08:17.973Z,9.70
2023-06-21T01:11:45.196Z,9.27
2023-06-21T01:14:57.021Z,9.10
2023-06-21T01:18:01.755Z,9.45
2023-06-21T01:21:05.288Z,9.07
2023-06-21T01:24:29.663Z,8.80
2023-06-21T01:27:58.100Z,9.80
2023-06-21T01:31:02.306Z,8.77
2023-06-21T01:34:05.335Z,8.65
2023-06-21T01:37:10.155Z,9.57
2023-06-21T01:40:13.427Z,8.97
2023-06-21T01:43:16.397Z,9.00
2023-06-21T01:46:22.546Z,9.63
2023-06-21T01:49:25.659Z,9.45
2023-06-21T01:52:29.667Z,10.00
2023-06-21T01:55:32.651Z,10.67
2023-06-21T01:58:35.686Z,9.65
2023-06-21T02:01:40.376Z,9.75
2023-06-21T02:04:43.425Z,9.27
2023-06-21T02:07:49.160Z,9.17
2023-06-21T02:10:52.231Z,9.43
2023-06-21T02:13:55.254Z,9.43
2023-06-21T02:16:59.254Z,9.68
2023-06-21T02:20:06.708Z,8.57
2023-06-21T02:23:10.775Z,9.27
2023-06-21T02:26:13.818Z,9.40
2023-06-21T02:29:18.362Z,9.85
2023-06-21T02:32:21.363Z,9.13
2023-06-21T02:35:24.441Z,8.63
2023-06-21T02:38:27.500Z,9.20
2023-06-21T02:41:30.536Z,8.80
2023-06-21T02:44:33.576Z,9.18
2023-06-21T02:47:36.694Z,9.63
2023-06-21T02:50:39.819Z,10.20
2023-06-21T02:53:43.142Z,9.90
2023-06-21T02:56:46.240Z,10.13
2023-06-21T02:59:50.302Z,10.32
2023-06-21T03:02:54.700Z,10.68
2023-06-21T03:05:57.823Z,10.23
2023-06-21T03:09:00.976Z,9.70
2023-06-21T03:12:09.894Z,9.47
2023-06-21T03:15:13.616Z,8.80
2023-06-21T03:18:17.788Z,9.77
2023-06-21T03:21:23.878Z,9.18
2023-06-21T03:24:29.584Z,10.23
2023-06-21T03:27:33.003Z,9.97
2023-06-21T03:30:36.157Z,10.65
2023-06-21T03:33:39.927Z,10.93
2023-06-21T03:36:43.332Z,11.25
2023-06-21T03:39:48.378Z,10.27
2023-06-21T03:42:51.339Z,11.07
2023-06-21T03:45:55.073Z,10.30
2023-06-21T03:49:00.061Z,10.27
2023-06-21T03:52:04.545Z,10.90
2023-06-21T03:55:09.110Z,10.70
2023-06-21T03:58:13.828Z,10.00
2023-06-21T04:01:17.790Z,11.50
2023-06-21T04:04:25.179Z,10.05
2023-06-21T04:07:28.183Z,9.55
2023-06-21T04:10:31.422Z,10.33
2023-06-21T04:13:34.521Z,9.97
2023-06-21T04:16:37.493Z,10.18
2023-06-21T04:19:40.484Z,10.50
2023-06-21T04:22:43.952Z,11.13
2023-06-21T04:25:46.992Z,10.13
2023-06-21T04:28:50.993Z,10.70
2023-06-21T04:31:54.306Z,10.05
2023-06-21T04:34:57.424Z,9.95
2023-06-21T04:38:01.452Z,11.82
2023-06-21T04:41:04.546Z,10.67
2023-06-21T04:44:07.576Z,10.97
2023-06-21T04:47:11.572Z,10.82
2023-06-21T04:50:21.827Z,10.45
2023-06-21T04:53:30.028Z,12.13
2023-06-21T04:56:33.147Z,11.87
2023-06-21T04:59:36.327Z,11.20
2023-06-21T05:02:39.366Z,10.50
2023-06-21T05:05:42.424Z,10.65
2023-06-21T05:08:45.392Z,10.43
2023-06-21T05:11:48.386Z,10.17
2023-06-21T05:14:51.409Z,10.77
2023-06-21T05:17:54.966Z,11.77
2023-06-21T05:20:57.972Z,11.07
2023-06-21T05:24:01.210Z,10.95
2023-06-21T05:27:04.835Z,10.53
2023-06-21T05:30:08.477Z,10.37
2023-06-21T05:33:11.596Z,10.85
2023-06-21T05:36:14.648Z,9.23
2023-06-21T05:39:17.723Z,9.88
2023-06-21T05:42:20.791Z,9.40
2023-06-21T05:45:24.443Z,10.00
2023-06-21T05:48:27.520Z,9.60
2023-06-21T05:51:30.540Z,9.27
2023-06-21T05:54:33.556Z,9.25
2023-06-21T05:57:36.531Z,9.33
2023-06-21T06:00:39.589Z,8.57
2023-06-21T06:03:42.745Z,8.95
2023-06-21T06:06:45.854Z,9.63
2023-06-21T06:09:48.916Z,9.85
2023-06-21T06:12:51.987Z,9.10
2023-06-21T06:15:55.218Z,8.43
2023-06-21T06:18:58.327Z,9.75
2023-06-21T06:22:01.306Z,9.45
2023-06-21T06:25:04.932Z,9.77
2023-06-21T06:28:08.520Z,9.60
2023-06-21T06:31:11.574Z,9.93
2023-06-21T06:34:14.689Z,10.63
2023-06-21T06:37:21.489Z,10.05
2023-06-21T06:40:27.271Z,9.35
2023-06-21T06:43:30.603Z,9.77
2023-06-21T06:46:35.134Z,9.93
2023-06-21T06:49:38.376Z,9.65
2023-06-21T06:52:41.552Z,9.80
2023-06-21T06:55:44.676Z,9.70
2023-06-21T06:58:47.840Z,10.47
2023-06-21T07:01:51.509Z,10.60
2023-06-21T07:04:54.806Z,10.80
2023-06-21T07:07:58.020Z,10.40
2023-06-21T07:11:01.352Z,10.35
2023-06-21T07:14:04.418Z,11.17
2023-06-21T07:17:07.656Z,11.23
2023-06-21T07:20:11.479Z,10.48
2023-06-21T07:23:14.841Z,10.25
2023-06-21T07:26:17.936Z,10.93
2023-06-21T07:29:20.988Z,10.60
2023-06-21T07:32:25.553Z,10.50
2023-06-21T07:35:28.819Z,10.70
2023-06-21T07:38:32.308Z,10.15
2023-06-21T07:41:35.391Z,11.05
2023-06-21T07:44:38.474Z,10.97
2023-06-21T07:47:42.873Z,10.63
2023-06-21T07:50:46.042Z,10.18
2023-06-21T07:53:49.021Z,11.40
2023-06-21T07:56:52.166Z,10.88
2023-06-21T07:59:57.418Z,11.10
2023-06-21T08:03:02.845Z,11.43
2023-06-21T08:06:06.193Z,12.07
2023-06-21T08:09:11.429Z,10.90
2023-06-21T08:12:14.614Z,11.13
2023-06-21T08:15:18.202Z,10.90
2023-06-21T08:18:21.364Z,10.50
2023-06-21T08:21:24.353Z,10.00
2023-06-21T08:24:30.374Z,9.82
2023-06-21T08:27:33.471Z,11.02
2023-06-21T08:30:36.901Z,11.60
2023-06-21T08:33:39.907Z,10.73
2023-06-21T08:36:43.108Z,10.60
2023-06-21T08:39:46.161Z,10.77
2023-06-21T08:42:49.241Z,11.77
2023-06-21T08:45:52.246Z,11.43
2023-06-21T08:48:58.132Z,10.80
2023-06-21T08:52:01.158Z,11.77
2023-06-21T08:55:06.960Z,11.45
2023-06-21T08:58:13.546Z,11.40
2023-06-21T09:01:16.594Z,11.43
2023-06-21T09:04:19.861Z,11.43
2023-06-21T09:07:24.003Z,11.10
2023-06-21T09:10:29.060Z,10.85
2023-06-21T09:13:32.271Z,11.48
2023-06-21T09:16:35.330Z,11.57
2023-06-21T09:19:41.237Z,10.40
2023-06-21T09:22:47.431Z,11.43
2023-06-21T09:25:50.517Z,10.77
2023-06-21T09:28:53.562Z,10.88
2023-06-21T09:31:57.433Z,10.80
2023-06-21T09:35:00.683Z,11.13
2023-06-21T09:38:05.065Z,11.50
2023-06-21T09:41:09.483Z,11.02
2023-06-21T09:44:15.660Z,10.52
2023-06-21T09:47:18.686Z,11.07
2023-06-21T09:50:21.744Z,11.03
2023-06-21T09:53:28.051Z,11.68
2023-06-21T09:56:32.534Z,11.02
2023-06-21T09:59:42.001Z,10.13
2023-06-21T10:02:45.275Z,10.63
2023-06-21T10:05:58.166Z,10.63
2023-06-21T10:09:01.227Z,10.13
2023-06-21T10:12:07.909Z,10.43
2023-06-21T10:15:11.181Z,11.55
2023-06-21T10:18:14.936Z,12.03
2023-06-21T10:21:17.999Z,12.33
2023-06-21T10:24:21.435Z,12.00
2023-06-21T10:27:24.431Z,12.00
2023-06-21T10:30:28.230Z,11.45
2023-06-21T10:33:31.892Z,11.10
2023-06-21T10:36:36.297Z,11.43
2023-06-21T10:39:39.293Z,12.07
2023-06-21T10:42:44.076Z,12.65
2023-06-21T10:45:47.137Z,12.48
2023-06-21T10:48:50.237Z,11.80
2023-06-21T10:51:53.223Z,11.63
2023-06-21T10:55:00.935Z,11.77
2023-06-21T10:58:04.088Z,12.13
2023-06-21T11:01:07.120Z,13.10
2023-06-21T11:04:10.245Z,12.43
2023-06-21T11:07:13.318Z,11.47
2023-06-21T11:10:16.454Z,11.55
2023-06-21T11:13:38.878Z,11.15
2023-06-21T11:16:42.023Z,12.50
2023-06-21T11:19:45.492Z,11.37
2023-06-21T11:23:01.855Z,11.67
2023-06-21T11:26:04.890Z,11.48
2023-06-21T11:29:15.196Z,11.50
2023-06-21T11:32:19.739Z,11.38
2023-06-21T11:35:22.793Z,11.90
2023-06-21T11:38:25.789Z,11.53
2023-06-21T11:41:44.014Z,11.88
2023-06-21T11:44:47.055Z,11.18
2023-06-21T11:48:25.335Z,11.50
2023-06-21T11:51:33.584Z,11.87
2023-06-21T11:54:38.643Z,12.10
2023-06-21T11:57:45.718Z,11.18
2023-06-21T12:00:49.030Z,12.27
2023-06-21T12:03:59.408Z,10.95
2023-06-21T12:07:02.597Z,11.30
2023-06-21T12:10:06.498Z,10.50
2023-06-21T12:13:14.579Z,11.05
2023-06-21T12:16:17.961Z,11.18
2023-06-21T12:19:22.695Z,10.77
2023-06-21T12:22:25.746Z,11.23
2023-06-21T12:25:28.751Z,12.67
2023-06-21T12:28:32.719Z,11.55
2023-06-21T12:31:35.878Z,12.82
2023-06-21T12:34:40.771Z,12.27
2023-06-21T12:37:44.174Z,11.57
2023-06-21T12:41:15.502Z,11.67
2023-06-21T12:44:27.824Z,12.18
2023-06-21T12:47:30.908Z,11.30
2023-06-21T12:50:36.249Z,11.60
2023-06-21T12:53:45.508Z,11.50
2023-06-21T12:56:51.003Z,10.73
2023-06-21T12:59:54.158Z,10.65
2023-06-21T13:02:58.600Z,10.27
2023-06-21T13:06:01.947Z,9.90
2023-06-21T13:09:05.235Z,11.05
2023-06-21T13:12:08.703Z,10.63
2023-06-21T13:15:11.867Z,10.30
2023-06-21T13:18:14.907Z,10.90
2023-06-21T13:21:18.492Z,10.90
2023-06-21T13:24:21.524Z,11.80
2023-06-21T13:27:24.522Z,11.43
2023-06-21T13:30:27.825Z,11.33
2023-06-21T13:33:30.992Z,11.05
2023-06-21T13:36:34.004Z,11.00
2023-06-21T13:39:37.086Z,10.80
2023-06-21T13:42:40.268Z,11.48
2023-06-21T13:45:43.414Z,10.63
2023-06-21T13:48:46.497Z,10.85
2023-06-21T13:51:49.539Z,10.50
2023-06-21T13:54:52.686Z,11.07
2023-06-21T13:57:55.758Z,11.65
2023-06-21T14:00:58.812Z,11.10
2023-06-21T14:04:03.582Z,10.82
2023-06-21T14:07:07.331Z,10.43
2023-06-21T14:10:11.334Z,10.55
2023-06-21T14:13:14.736Z,11.02
2023-06-21T14:16:17.965Z,9.93
2023-06-21T14:19:20.992Z,10.32
2023-06-21T14:22:27.387Z,10.43
2023-06-21T14:25:31.046Z,10.65
2023-06-21T14:28:34.985Z,10.15
2023-06-21T14:31:38.160Z,9.60
2023-06-21T14:34:45.138Z,10.30
2023-06-21T14:37:51.056Z,9.90
2023-06-21T14:40:54.170Z,10.23
2023-06-21T14:43:57.982Z,10.45
2023-06-21T14:47:01.626Z,10.30
2023-06-21T14:50:05.069Z,9.88
2023-06-21T14:53:08.105Z,10.23
2023-06-21T14:56:11.363Z,10.20
2023-06-21T14:59:14.393Z,10.95
2023-06-21T15:02:17.517Z,10.37
2023-06-21T15:05:20.728Z,10.48
2023-06-21T15:08:23.855Z,10.18
2023-06-21T15:11:26.899Z,9.82
2023-06-21T15:14:30.139Z,9.95
2023-06-21T15:17:33.375Z,9.93
2023-06-21T15:20:36.581Z,10.23
2023-06-21T15:23:41.401Z,10.23
2023-06-21T15:26:44.797Z,9.18
2023-06-21T15:29:47.971Z,9.85
2023-06-21T15:32:51.326Z,9.03
2023-06-21T15:35:54.693Z,9.40
2023-06-21T15:38:58.369Z,9.90
2023-06-21T15:42:01.595Z,9.57
2023-06-21T15:45:05.481Z,9.60
2023-06-21T15:48:09.592Z,9.90
2023-06-21T15:51:12.794Z,9.93
2023-06-21T15:54:16.072Z,9.48
2023-06-21T15:57:19.239Z,9.50
2023-06-21T16:00:22.751Z,9.57
2023-06-21T16:03:27.702Z,9.53
2023-06-21T16:06:32.714Z,9.00
2023-06-21T16:09:35.960Z,9.75
2023-06-21T16:12:39.288Z,9.40
2023-06-21T16:15:42.580Z,8.75
2023-06-21T16:18:46.442Z,8.80
2023-06-21T16:21:51.088Z,9.60
2023-06-21T16:24:54.199Z,9.65
2023-06-21T16:27:57.187Z,9.25
2023-06-21T16:31:00.195Z,10.18
2023-06-21T16:34:03.175Z,9.83
2023-06-21T16:37:06.352Z,9.85
2023-06-21T16:40:10.286Z,9.48
2023-06-21T16:43:14.252Z,9.80
2023-06-21T16:46:17.346Z,10.55
2023-06-21T16:49:26.589Z,10.20
2023-06-21T16:52:30.209Z,9.43
2023-06-21T16:55:33.335Z,9.80
2023-06-21T16:58:36.571Z,9.30
2023-06-21T17:01:39.572Z,10.13
2023-06-21T17:04:42.623Z,9.87
2023-06-21T17:07:45.692Z,9.48
2023-06-21T17:10:48.701Z,9.50
2023-06-21T17:13:53.929Z,9.15
2023-06-21T17:16:57.034Z,9.05
2023-06-21T17:20:00.079Z,9.67
2023-06-21T17:23:03.124Z,9.82
2023-06-21T17:26:06.933Z,9.52
2023-06-21T17:29:11.469Z,9.43
2023-06-21T17:32:14.964Z,9.85
2023-06-21T17:35:20.203Z,9.07
2023-06-21T17:38:23.246Z,10.27
2023-06-21T17:41:26.250Z,10.30
2023-06-21T17:44:29.235Z,9.70
2023-06-21T17:47:32.403Z,9.85
2023-06-21T17:50:35.444Z,9.87
2023-06-21T17:53:38.470Z,9.82
2023-06-21T17:56:41.610Z,9.73
2023-06-21T17:59:44.817Z,10.32
2023-06-21T18:02:47.937Z,10.25
2023-06-21T18:05:51.381Z,9.50
2023-06-21T18:08:54.544Z,10.73
2023-06-21T18:11:57.594Z,10.13
2023-06-21T18:15:00.717Z,10.35
2023-06-21T18:18:03.907Z,10.60
2023-06-21T18:21:07.007Z,10.67
2023-06-21T18:24:15.332Z,11.05
2023-06-21T18:27:18.384Z,10.43
2023-06-21T18:30:21.443Z,10.80
2023-06-21T18:33:24.477Z,12.32
2023-06-21T18:36:27.606Z,11.00
2023-06-21T18:39:30.624Z,11.35
2023-06-21T18:42:33.673Z,11.50
2023-06-21T18:45:37.138Z,11.02
2023-06-21T18:48:41.248Z,11.25
2023-06-21T18:51:44.510Z,11.30
2023-06-21T18:54:47.504Z,11.50
2023-06-21T18:57:50.539Z,10.73
2023-06-21T19:00:53.564Z,11.10
2023-06-21T19:03:58.079Z,11.65
2023-06-21T19:07:01.526Z,10.87
2023-06-21T19:10:05.020Z,11.50
2023-06-21T19:13:08.088Z,11.45
2023-06-21T19:16:14.876Z,11.55
2023-06-21T19:19:17.834Z,11.48
2023-06-21T19:22:20.806Z,12.17
2023-06-21T19:25:23.831Z,10.85
2023-06-21T19:28:26.927Z,11.07
2023-06-21T19:31:30.769Z,10.98
2023-06-21T19:34:33.790Z,10.90
2023-06-21T19:37:36.785Z,11.73
2023-06-21T19:40:44.444Z,10.35
2023-06-21T19:43:47.424Z,7.10
2023-06-21T19:46:50.501Z,7.18
2023-06-21T19:49:53.493Z,5.88
2023-06-21T19:52:56.459Z,5.70
2023-06-21T19:55:59.510Z,6.68
2023-06-21T19:59:03.090Z,6.40
2023-06-21T20:02:06.551Z,6.97
2023-06-21T20:05:09.964Z,8.40
2023-06-21T20:08:12.975Z,7.50
2023-06-21T20:11:16.016Z,8.52
2023-06-21T20:14:19.068Z,8.20
2023-06-21T20:17:22.056Z,7.63
2023-06-21T20:20:25.066Z,7.95
2023-06-21T20:23:28.570Z,7.47
2023-06-21T20:26:31.561Z,8.57
2023-06-21T20:29:34.563Z,8.13
2023-06-21T20:32:37.597Z,8.75
2023-06-21T20:35:41.425Z,7.65
2023-06-21T20:38:45.772Z,7.53
2023-06-21T20:41:48.805Z,7.63
2023-06-21T20:44:51.836Z,7.43
2023-06-21T20:47:57.810Z,7.75
2023-06-21T20:51:00.856Z,6.75
2023-06-21T20:54:04.250Z,6.67
2023-06-21T20:57:07.458Z,6.18
2023-06-21T21:00:12.302Z,4.97
2023-06-21T21:03:18.825Z,4.90
2023-06-21T21:06:21.856Z,5.38
2023-06-21T21:09:25.679Z,4.63
2023-06-21T21:12:28.700Z,4.50
2023-06-21T21:15:32.516Z,4.80
2023-06-21T21:18:35.573Z,5.25
2023-06-21T21:21:38.560Z,4.68
2023-06-21T21:24:41.852Z,5.30
2023-06-21T21:27:44.861Z,5.07
2023-06-21T21:30:48.777Z,5.88
2023-06-21T21:33:52.029Z,6.70
2023-06-21T21:36:55.008Z,5.53
2023-06-21T21:39:58.227Z,4.30
2023-06-21T21:43:01.309Z,4.90
2023-06-21T21:46:04.298Z,4.35
2023-06-21T21:49:07.266Z,4.50
2023-06-21T21:52:10.295Z,4.05
2023-06-21T21:55:14.965Z,4.13
2023-06-21T21:58:17.983Z,4.03
2023-06-21T22:01:21.003Z,4.95
2023-06-21T22:04:24.211Z,4.68
2023-06-21T22:07:27.302Z,5.50
2023-06-21T22:10:38.320Z,4.37
2023-06-21T22:13:42.947Z,5.30
2023-06-21T22:16:50.944Z,5.72
2023-06-21T22:19:53.904Z,4.70
2023-06-21T22:22:56.901Z,4.30
2023-06-21T22:26:00.764Z,4.27
2023-06-21T22:29:03.779Z,5.03
2023-06-21T22:32:07.377Z,5.40
2023-06-21T22:35:10.527Z,5.75
2023-06-21T22:38:13.556Z,5.53
2023-06-21T22:41:19.691Z,6.23
2023-06-21T22:44:22.663Z,5.35
2023-06-21T22:47:25.641Z,5.40
2023-06-21T22:50:29.852Z,5.00
2023-06-21T22:53:33.228Z,4.90
2023-06-21T22:56:36.792Z,5.43
2023-06-21T22:59:40.340Z,5.88
2023-06-21T23:02:43.522Z,5.70
2023-06-21T23:05:47.529Z,5.07
2023-06-21T23:08:50.639Z,5.18
2023-06-21T23:11:54.584Z,5.00
2023-06-21T23:14:57.665Z,4.60
2023-06-21T23:18:02.073Z,4.53
2023-06-21T23:21:07.028Z,4.50
2023-06-21T23:24:11.713Z,4.78
2023-06-21T23:27:15.720Z,4.87
2023-06-21T23:30:34.525Z,4.72
2023-06-21T23:33:42.140Z,4.57
2023-06-21T23:36:51.522Z,4.85
2023-06-21T23:39:55.109Z,5.20
2023-06-21T23:42:59.641Z,5.70
2023-06-21T23:46:04.541Z,5.07
2023-06-21T23:49:07.561Z,4.90
2023-06-21T23:52:10.593Z,5.35
2023-06-21T23:55:18.391Z,5.35
2023-06-21T23:58:22.502Z,5.40
